Time;durP1;ratioP1;P1;durP2;ratioP2;P2;SDS_P1;SDS_P2;PMS_P1;PMS_P2;Temp;Humidity;BMP_temperature;BMP_pressure;BME280_temperature;BME280_humidity;BME280_pressure;Samples;Min_cycle;Max_cycle;Signal;HPM_P1;HPM_P2
2020/12/06 00:00:05;;;;;;;27.23;18.63;;;4.50;99.90;;;;;;5110395;28;20867;-79
2020/12/06 00:02:31;;;;;;;26.73;20.10;;;4.60;99.90;;;;;;5104939;28;20643;-79
2020/12/06 00:04:57;;;;;;;28.88;20.15;;;4.50;99.90;;;;;;5103426;28;20184;-79
2020/12/06 00:07:24;;;;;;;31.08;18.63;;;4.50;99.90;;;;;;5097483;28;20271;-79
2020/12/06 00:09:50;;;;;;;27.23;17.95;;;4.50;99.90;;;;;;5101559;28;20275;-79
2020/12/06 00:12:16;;;;;;;29.15;20.42;;;4.50;99.90;;;;;;5108656;28;20634;-79
2020/12/06 00:14:42;;;;;;;28.80;20.00;;;4.50;99.90;;;;;;5112771;28;20212;-79
2020/12/06 00:17:08;;;;;;;31.13;19.77;;;4.50;99.90;;;;;;5101594;28;20497;-79
2020/12/06 00:19:34;;;;;;;28.00;19.70;;;4.40;99.90;;;;;;5100382;28;20502;-79
2020/12/06 00:22:00;;;;;;;28.17;20.10;;;4.40;99.90;;;;;;5110339;28;20536;-79
2020/12/06 00:24:27;;;;;;;26.30;20.20;;;4.40;99.90;;;;;;5107492;28;20211;-79
2020/12/06 00:26:56;;;;;;;29.48;20.40;;;4.40;99.90;;;;;;5098228;28;20647;-79
2020/12/06 00:29:22;;;;;;;27.30;19.83;;;4.30;99.90;;;;;;5097950;28;20237;-78
2020/12/06 00:31:49;;;;;;;30.37;21.23;;;4.30;99.90;;;;;;5107282;28;20216;-79
2020/12/06 00:34:15;;;;;;;28.60;20.48;;;4.20;99.90;;;;;;5102467;28;20571;-78
2020/12/06 00:36:41;;;;;;;37.38;23.50;;;4.20;99.90;;;;;;5102245;28;20669;-78
2020/12/06 00:39:07;;;;;;;35.07;22.83;;;4.10;99.90;;;;;;5112367;28;20237;-78
2020/12/06 00:41:33;;;;;;;34.73;22.97;;;4.10;99.90;;;;;;5098237;28;20506;-78
2020/12/06 00:43:59;;;;;;;36.80;23.88;;;4.10;99.90;;;;;;5095305;28;20541;-78
2020/12/06 00:46:25;;;;;;;37.50;23.48;;;4.00;99.90;;;;;;5112789;28;20274;-78
2020/12/06 00:48:51;;;;;;;41.27;26.67;;;4.00;99.90;;;;;;5103980;28;20585;-78
2020/12/06 00:51:17;;;;;;;36.15;24.77;;;4.00;99.90;;;;;;5109710;28;20899;-78
2020/12/06 00:53:44;;;;;;;34.35;24.60;;;4.00;99.90;;;;;;5096494;28;20708;-79
2020/12/06 00:56:17;;;;;;;33.00;23.63;;;4.00;99.90;;;;;;5111761;28;20212;-79
2020/12/06 00:58:44;;;;;;;35.85;23.92;;;4.00;99.90;;;;;;5104991;28;20181;-79
2020/12/06 01:01:10;;;;;;;34.92;24.90;;;4.00;99.90;;;;;;5103479;28;20295;-79
2020/12/06 01:03:38;;;;;;;38.22;23.95;;;4.00;99.90;;;;;;5107502;28;20223;-79
2020/12/06 01:06:05;;;;;;;35.40;24.35;;;4.00;99.90;;;;;;5110109;28;20211;-78
2020/12/06 01:08:31;;;;;;;41.42;25.90;;;3.90;99.90;;;;;;5098197;28;20614;-78
2020/12/06 01:10:57;;;;;;;37.40;25.48;;;3.90;99.90;;;;;;5102477;28;20295;-78
2020/12/06 01:13:23;;;;;;;38.25;26.88;;;3.90;99.90;;;;;;5111399;28;20220;-78
2020/12/06 01:15:50;;;;;;;41.40;27.07;;;3.90;99.90;;;;;;5095309;28;20273;-78
2020/12/06 01:18:16;;;;;;;43.85;27.70;;;3.80;99.90;;;;;;5110852;28;20520;-78
2020/12/06 01:20:42;;;;;;;40.97;27.90;;;3.90;99.90;;;;;;5102992;28;20184;-78
2020/12/06 01:23:08;;;;;;;42.63;27.85;;;3.90;99.90;;;;;;5112305;28;20535;-78
2020/12/06 01:25:34;;;;;;;45.17;27.10;;;3.80;99.90;;;;;;5101333;28;20185;-79
2020/12/06 01:28:00;;;;;;;45.78;28.42;;;3.90;99.90;;;;;;5112343;28;20469;-78
2020/12/06 01:30:26;;;;;;;45.47;28.50;;;4.00;99.90;;;;;;5100853;28;20184;-78
2020/12/06 01:32:53;;;;;;;41.40;27.50;;;4.00;99.90;;;;;;5106777;28;20949;-79
2020/12/06 01:35:19;;;;;;;40.25;26.00;;;4.00;99.90;;;;;;5108201;28;20271;-78
2020/12/06 01:37:45;;;;;;;43.20;27.45;;;4.00;99.90;;;;;;5099403;28;20489;-79
2020/12/06 01:40:11;;;;;;;44.20;28.13;;;4.10;99.90;;;;;;5112278;28;20220;-78
2020/12/06 01:42:37;;;;;;;41.67;27.47;;;4.10;99.90;;;;;;5102126;28;20192;-78
2020/12/06 01:45:03;;;;;;;44.63;28.47;;;4.20;99.90;;;;;;5105169;28;20470;-79
2020/12/06 01:47:30;;;;;;;41.38;26.77;;;4.20;99.90;;;;;;5100694;28;20545;-77
2020/12/06 01:49:58;;;;;;;43.85;27.40;;;4.20;99.90;;;;;;5109181;28;20263;-76
2020/12/06 01:52:26;;;;;;;41.60;27.38;;;4.30;99.90;;;;;;5095453;28;20220;-79
2020/12/06 01:54:53;;;;;;;43.80;27.20;;;4.30;99.90;;;;;;5095158;28;20246;-78
2020/12/06 01:57:19;;;;;;;42.55;26.75;;;4.30;99.90;;;;;;5095284;28;20283;-79
2020/12/06 01:59:45;;;;;;;45.57;27.60;;;4.30;99.90;;;;;;5095077;28;20216;-78
2020/12/06 02:02:13;;;;;;;45.50;28.73;;;4.30;99.90;;;;;;5095140;28;20537;-77
2020/12/06 02:04:40;;;;;;;40.97;26.35;;;4.30;99.90;;;;;;5095091;28;20275;-78
2020/12/06 02:07:07;;;;;;;44.38;27.08;;;4.30;99.90;;;;;;5095272;28;20275;-78
2020/12/06 02:09:33;;;;;;;41.65;27.55;;;4.30;99.90;;;;;;5094899;28;20715;-78
2020/12/06 02:12:00;;;;;;;46.35;27.35;;;4.30;99.90;;;;;;5094930;28;20778;-78
2020/12/06 02:14:26;;;;;;;39.85;25.70;;;4.30;99.90;;;;;;5114150;28;20613;-78
2020/12/06 02:16:53;;;;;;;42.83;27.17;;;4.30;99.90;;;;;;5115505;28;20192;-77
2020/12/06 02:19:19;;;;;;;41.45;25.65;;;4.30;99.90;;;;;;5115290;28;20189;-78
2020/12/06 02:21:46;;;;;;;45.63;28.38;;;4.30;99.90;;;;;;5115348;28;20299;-77
2020/12/06 02:24:15;;;;;;;43.42;27.33;;;4.30;99.90;;;;;;5115111;28;20283;-80
2020/12/06 02:26:42;;;;;;;39.47;25.98;;;4.30;99.90;;;;;;5115080;28;20274;-79
2020/12/06 02:29:08;;;;;;;40.55;24.02;;;4.40;99.90;;;;;;5113644;28;20611;-79
2020/12/06 02:31:35;;;;;;;40.78;26.55;;;4.40;99.90;;;;;;5115157;27;20302;-79
2020/12/06 02:34:01;;;;;;;36.20;25.00;;;4.40;99.90;;;;;;5115034;28;20282;-79
2020/12/06 02:36:27;;;;;;;37.28;24.00;;;4.40;99.90;;;;;;5114993;28;20195;-79
2020/12/06 02:38:54;;;;;;;43.53;28.23;;;4.40;99.90;;;;;;5114707;28;20191;-79
2020/12/06 02:41:20;;;;;;;38.75;26.65;;;4.40;99.90;;;;;;5114832;28;20477;-79
2020/12/06 02:43:46;;;;;;;37.00;24.35;;;4.40;99.90;;;;;;5114582;28;20293;-79
2020/12/06 02:46:12;;;;;;;40.53;24.85;;;4.40;99.90;;;;;;5114988;28;20231;-79
2020/12/06 02:48:38;;;;;;;39.15;25.38;;;4.40;99.90;;;;;;5114758;28;20214;-79
2020/12/06 02:51:05;;;;;;;35.05;23.38;;;4.50;99.90;;;;;;5114694;28;20302;-79
2020/12/06 02:53:31;;;;;;;36.13;23.33;;;4.50;99.90;;;;;;5114621;28;20286;-79
2020/12/06 02:55:58;;;;;;;38.08;24.83;;;4.50;99.90;;;;;;5114408;28;20275;-79
2020/12/06 02:58:24;;;;;;;38.58;23.88;;;4.50;99.90;;;;;;5114688;28;20298;-78
2020/12/06 03:00:50;;;;;;;35.20;23.45;;;4.50;99.90;;;;;;5114482;28;20227;-79
2020/12/06 03:03:16;;;;;;;36.13;23.30;;;4.50;99.90;;;;;;5114489;28;20219;-78
2020/12/06 03:05:42;;;;;;;40.40;24.25;;;4.60;99.90;;;;;;5114388;28;20260;-78
2020/12/06 03:08:08;;;;;;;36.45;22.73;;;4.60;99.90;;;;;;5114195;28;20698;-78
2020/12/06 03:10:34;;;;;;;34.57;22.83;;;4.60;99.90;;;;;;5114230;28;20213;-78
2020/12/06 03:13:01;;;;;;;32.20;22.87;;;4.60;99.90;;;;;;5113979;28;20883;-78
2020/12/06 03:15:27;;;;;;;36.85;22.25;;;4.60;99.90;;;;;;5113928;28;20501;-78
2020/12/06 03:17:53;;;;;;;32.50;21.73;;;4.70;99.90;;;;;;5114151;28;20223;-78
2020/12/06 03:20:19;;;;;;;32.60;21.73;;;4.70;99.90;;;;;;5114035;28;20522;-78
2020/12/06 03:22:45;;;;;;;33.60;21.92;;;4.70;99.90;;;;;;5114120;28;20499;-78
2020/12/06 03:25:11;;;;;;;31.83;21.83;;;4.80;99.90;;;;;;5113921;28;20187;-78
2020/12/06 03:27:37;;;;;;;33.80;21.90;;;4.80;99.90;;;;;;5114142;28;20449;-78
2020/12/06 03:30:04;;;;;;;32.27;22.07;;;4.80;99.90;;;;;;5114051;28;20502;-79
2020/12/06 03:32:30;;;;;;;33.35;21.55;;;4.80;99.90;;;;;;5113807;28;20572;-78
2020/12/06 03:34:56;;;;;;;29.40;19.83;;;4.90;99.90;;;;;;5099097;28;20192;-78
2020/12/06 03:37:22;;;;;;;36.40;21.60;;;4.90;99.90;;;;;;5093426;28;21015;-79
2020/12/06 03:39:48;;;;;;;32.97;22.10;;;5.00;99.90;;;;;;5092768;28;20442;-78
2020/12/06 03:42:15;;;;;;;29.77;22.40;;;5.00;99.90;;;;;;5093246;28;20901;-78
2020/12/06 03:44:41;;;;;;;28.60;19.58;;;5.00;99.90;;;;;;5093122;28;20552;-79
2020/12/06 03:47:08;;;;;;;32.00;21.70;;;5.10;99.90;;;;;;5093419;28;20192;-79
2020/12/06 03:49:34;;;;;;;31.35;20.95;;;5.10;99.90;;;;;;5093242;28;20876;-79
2020/12/06 03:52:00;;;;;;;33.10;21.65;;;5.10;99.90;;;;;;5112276;28;20295;-79
2020/12/06 03:54:26;;;;;;;31.55;21.63;;;5.10;99.90;;;;;;5113422;28;20188;-79
2020/12/06 03:56:52;;;;;;;30.13;20.50;;;5.20;99.90;;;;;;5113462;28;20191;-78
2020/12/06 03:59:18;;;;;;;29.80;21.10;;;5.20;99.90;;;;;;5113592;28;20502;-79
2020/12/06 04:01:44;;;;;;;28.25;19.50;;;5.20;99.90;;;;;;5113547;28;20544;-79
2020/12/06 04:04:11;;;;;;;28.65;20.17;;;5.20;99.90;;;;;;5113481;28;20287;-80
2020/12/06 04:06:37;;;;;;;30.80;20.63;;;5.20;99.90;;;;;;5113211;28;20622;-79
2020/12/06 04:09:03;;;;;;;33.17;21.07;;;5.20;99.90;;;;;;5113294;28;20241;-79
2020/12/06 04:11:31;;;;;;;31.92;20.40;;;5.20;99.90;;;;;;5113340;28;20477;-80
2020/12/06 04:13:57;;;;;;;32.78;19.90;;;5.20;99.90;;;;;;5110584;28;20219;-80
2020/12/06 04:16:23;;;;;;;27.17;19.47;;;5.20;99.90;;;;;;5113411;28;20593;-80
2020/12/06 04:18:49;;;;;;;28.23;20.00;;;5.20;99.90;;;;;;5113219;28;20474;-80
2020/12/06 04:21:16;;;;;;;31.95;22.10;;;5.20;99.90;;;;;;5113203;28;20537;-80
2020/12/06 04:23:42;;;;;;;28.73;20.08;;;5.30;99.90;;;;;;5113192;28;20680;-79
2020/12/06 04:26:08;;;;;;;32.08;22.05;;;5.20;99.90;;;;;;5113442;28;20213;-79
2020/12/06 04:28:34;;;;;;;30.83;21.23;;;5.20;99.90;;;;;;5113379;28;20647;-79
2020/12/06 04:31:00;;;;;;;34.57;23.43;;;5.20;99.90;;;;;;5113158;28;20502;-78
2020/12/06 04:33:26;;;;;;;30.40;20.77;;;5.10;99.90;;;;;;5113137;28;20537;-78
2020/12/06 04:35:52;;;;;;;29.77;21.70;;;5.10;99.90;;;;;;5112976;28;20543;-79
2020/12/06 04:38:19;;;;;;;31.33;22.10;;;5.10;99.90;;;;;;5112913;28;20446;-79
2020/12/06 04:40:45;;;;;;;27.60;19.33;;;5.10;99.90;;;;;;5113108;28;20507;-78
2020/12/06 04:43:13;;;;;;;31.88;20.55;;;5.10;99.90;;;;;;5113287;28;20196;-78
2020/12/06 04:45:40;;;;;;;29.67;20.88;;;5.10;99.90;;;;;;5112977;28;20279;-77
2020/12/06 04:48:08;;;;;;;30.13;20.70;;;5.10;99.90;;;;;;5113142;28;20239;-78
2020/12/06 04:50:35;;;;;;;28.23;20.25;;;5.10;99.90;;;;;;5112960;28;20275;-78
2020/12/06 04:53:04;;;;;;;28.73;19.80;;;5.10;99.90;;;;;;5115952;28;20661;-78
2020/12/06 04:55:34;;;;;;;32.85;20.50;;;5.20;99.90;;;;;;5117050;28;20282;-79
2020/12/06 04:58:01;;;;;;;31.95;20.90;;;5.20;99.90;;;;;;5116881;28;20279;-79
2020/12/06 05:00:33;;;;;;;29.95;21.02;;;5.20;99.90;;;;;;5116872;28;20196;-80
2020/12/06 05:03:06;;;;;;;31.50;20.13;;;5.20;99.90;;;;;;5116893;28;20194;-80
2020/12/06 05:05:35;;;;;;;32.03;19.63;;;5.20;99.90;;;;;;5116984;28;20270;-79
2020/12/06 05:08:05;;;;;;;31.58;21.13;;;5.20;99.90;;;;;;5116674;28;20286;-79
2020/12/06 05:10:36;;;;;;;31.08;21.55;;;5.20;99.90;;;;;;5116686;28;20647;-79
2020/12/06 05:13:02;;;;;;;30.80;22.38;;;5.20;99.90;;;;;;5116582;28;20254;-79
2020/12/06 05:15:28;;;;;;;29.08;20.65;;;5.20;99.90;;;;;;5116518;28;20635;-79
2020/12/06 05:17:55;;;;;;;29.20;20.50;;;5.20;99.90;;;;;;5116439;28;20213;-79
2020/12/06 05:20:21;;;;;;;32.50;20.48;;;5.20;99.90;;;;;;5116206;28;21023;-79
2020/12/06 05:22:47;;;;;;;31.00;21.80;;;5.20;99.90;;;;;;5116455;28;20223;-79
2020/12/06 05:25:14;;;;;;;28.40;21.05;;;5.20;99.90;;;;;;5116345;28;20437;-79
2020/12/06 05:27:41;;;;;;;28.92;19.65;;;5.20;99.90;;;;;;5116233;28;20276;-79
2020/12/06 05:30:07;;;;;;;28.60;20.00;;;5.20;99.90;;;;;;5116210;28;20279;-79
2020/12/06 05:32:33;;;;;;;30.58;21.65;;;5.20;99.90;;;;;;5116046;27;20250;-79
2020/12/06 05:35:00;;;;;;;31.20;21.15;;;5.20;99.90;;;;;;5116343;28;20286;-79
2020/12/06 05:37:26;;;;;;;34.45;21.40;;;5.20;99.90;;;;;;5116146;28;20287;-79
2020/12/06 05:40:00;;;;;;;29.88;20.17;;;5.20;99.90;;;;;;5116147;28;20283;-79
2020/12/06 05:42:26;;;;;;;29.30;20.42;;;5.20;99.90;;;;;;5115971;28;20673;-79
2020/12/06 05:44:56;;;;;;;32.78;21.77;;;5.20;99.90;;;;;;5115898;28;20188;-80
2020/12/06 05:47:22;;;;;;;33.75;21.23;;;5.30;99.90;;;;;;5115964;28;20214;-80
2020/12/06 05:49:48;;;;;;;29.48;20.25;;;5.30;99.90;;;;;;5115949;28;20276;-80
2020/12/06 05:52:16;;;;;;;29.90;20.83;;;5.30;99.90;;;;;;5115762;28;20219;-80
2020/12/06 05:54:42;;;;;;;32.33;21.35;;;5.30;99.90;;;;;;5115746;28;20604;-80
2020/12/06 05:57:11;;;;;;;38.17;20.80;;;5.30;99.90;;;;;;5115602;28;20611;-81
2020/12/06 05:59:37;;;;;;;29.30;19.67;;;5.30;99.90;;;;;;5115694;28;20659;-81
2020/12/06 06:02:04;;;;;;;30.45;18.70;;;5.30;99.90;;;;;;5115262;28;20628;-80
2020/12/06 06:04:36;;;;;;;32.50;19.70;;;5.30;99.90;;;;;;5115801;28;20282;-80
2020/12/06 06:07:03;;;;;;;30.08;20.65;;;5.30;99.90;;;;;;5100958;27;20267;-78
2020/12/06 06:09:33;;;;;;;30.25;20.45;;;5.30;99.90;;;;;;5095135;28;20228;-79
2020/12/06 06:12:27;;;;;;;29.13;20.20;;;5.30;99.90;;;;;;5094634;28;20299;-79
2020/12/06 06:14:55;;;;;;;31.42;21.50;;;5.30;99.90;;;;;;5095076;28;20222;-80
2020/12/06 06:17:23;;;;;;;29.13;20.38;;;5.30;99.90;;;;;;5093950;28;20195;-80
2020/12/06 06:19:49;;;;;;;26.17;19.85;;;5.40;99.90;;;;;;5094932;28;20272;-80
2020/12/06 06:22:17;;;;;;;29.35;20.65;;;5.40;99.90;;;;;;5094817;28;20280;-79
2020/12/06 06:24:45;;;;;;;30.45;21.60;;;5.40;99.90;;;;;;5094731;28;20280;-80
2020/12/06 06:27:11;;;;;;;30.52;20.48;;;5.40;99.90;;;;;;5094698;28;20279;-79
2020/12/06 06:29:37;;;;;;;27.42;19.83;;;5.50;99.90;;;;;;5094749;28;20313;-79
2020/12/06 06:32:04;;;;;;;29.40;20.27;;;5.40;99.90;;;;;;5094460;28;20251;-79
2020/12/06 06:34:32;;;;;;;30.90;21.17;;;5.40;99.90;;;;;;5094158;28;20470;-79
2020/12/06 06:36:58;;;;;;;32.53;19.45;;;5.50;99.90;;;;;;5094421;28;20546;-79
2020/12/06 06:39:26;;;;;;;27.83;19.40;;;5.50;99.90;;;;;;5094620;28;20214;-79
2020/12/06 06:41:58;;;;;;;32.50;20.17;;;5.50;99.90;;;;;;5094388;28;20315;-79
2020/12/06 06:44:25;;;;;;;30.40;18.65;;;5.60;99.90;;;;;;5093858;28;20283;-79
2020/12/06 06:46:51;;;;;;;30.67;20.67;;;5.60;99.90;;;;;;5094295;28;20283;-79
2020/12/06 06:49:19;;;;;;;28.27;19.55;;;5.60;99.90;;;;;;5094159;28;20185;-79
2020/12/06 06:51:52;;;;;;;30.77;20.50;;;5.60;99.90;;;;;;5094242;28;20299;-79
2020/12/06 06:54:26;;;;;;;28.30;19.75;;;5.60;99.90;;;;;;5093683;28;20195;-79
2020/12/06 06:56:52;;;;;;;28.35;19.73;;;5.60;99.90;;;;;;5093922;28;20643;-80
2020/12/06 06:59:35;;;;;;;28.58;19.35;;;5.60;99.90;;;;;;5093926;28;20280;-80
2020/12/06 07:02:01;;;;;;;26.17;19.77;;;5.60;99.90;;;;;;5093820;28;20251;-79
2020/12/06 07:04:27;;;;;;;30.50;19.50;;;5.60;99.90;;;;;;5094009;28;20735;-79
2020/12/06 07:06:54;;;;;;;29.03;19.47;;;5.70;99.90;;;;;;5094123;28;20220;-79
2020/12/06 07:09:24;;;;;;;28.77;18.77;;;5.70;99.90;;;;;;5094012;28;20530;-79
2020/12/06 07:11:51;;;;;;;26.65;19.02;;;5.70;99.90;;;;;;5094008;28;20308;-80
2020/12/06 07:14:17;;;;;;;23.73;17.23;;;5.70;99.90;;;;;;5111408;28;20306;-79
2020/12/06 07:16:43;;;;;;;21.98;16.90;;;5.80;99.90;;;;;;5114094;28;20601;-80
2020/12/06 07:19:08;;;;;;;25.85;18.40;;;5.70;99.90;;;;;;5114144;28;20295;-80
2020/12/06 07:21:37;;;;;;;24.27;18.90;;;5.80;99.90;;;;;;5114216;28;20195;-80
2020/12/06 07:24:05;;;;;;;23.20;17.40;;;5.80;99.90;;;;;;5114116;28;20532;-81
2020/12/06 07:26:31;;;;;;;26.63;18.00;;;5.80;99.90;;;;;;5114102;28;20264;-81
2020/12/06 07:28:58;;;;;;;25.10;17.75;;;5.80;99.90;;;;;;5113886;28;20226;-81
2020/12/06 07:31:25;;;;;;;28.30;18.77;;;5.90;99.90;;;;;;5114001;28;20287;-79
2020/12/06 07:33:51;;;;;;;25.63;18.25;;;5.90;99.90;;;;;;5113823;28;20651;-80
2020/12/06 07:36:18;;;;;;;28.13;18.92;;;5.90;99.90;;;;;;5113972;28;20625;-80
2020/12/06 07:38:44;;;;;;;27.17;17.83;;;6.00;99.90;;;;;;5113820;28;20188;-80
2020/12/06 07:41:11;;;;;;;24.85;17.75;;;6.00;99.90;;;;;;5113787;28;20191;-80
2020/12/06 07:43:38;;;;;;;22.02;16.52;;;6.10;99.90;;;;;;5113565;28;20227;-80
2020/12/06 07:46:12;;;;;;;23.45;16.98;;;6.20;99.90;;;;;;5113956;28;20729;-81
2020/12/06 07:48:38;;;;;;;21.70;16.40;;;6.20;99.90;;;;;;5113789;28;20279;-81
2020/12/06 07:51:04;;;;;;;25.27;17.40;;;6.30;99.90;;;;;;5113802;28;20215;-82
2020/12/06 07:53:46;;;;;;;20.40;16.63;;;6.30;99.90;;;;;;5113525;28;20477;-82
2020/12/06 07:56:17;;;;;;;25.73;17.23;;;6.40;99.90;;;;;;5113450;28;20184;-79
2020/12/06 07:58:49;;;;;;;22.75;16.20;;;6.40;99.90;;;;;;5113706;28;20188;-79
2020/12/06 08:01:15;;;;;;;20.60;14.60;;;6.40;99.90;;;;;;5113566;28;20295;-80
2020/12/06 08:03:42;;;;;;;19.20;15.18;;;6.50;99.90;;;;;;5113496;28;20286;-79
2020/12/06 08:06:09;;;;;;;22.92;15.23;;;6.60;99.90;;;;;;5113510;28;20282;-78
2020/12/06 08:08:39;;;;;;;21.10;16.10;;;6.60;99.90;;;;;;5113264;28;20279;-81
2020/12/06 08:11:07;;;;;;;20.83;15.70;;;6.60;99.90;;;;;;5113598;28;20282;-79
2020/12/06 08:13:34;;;;;;;20.63;15.52;;;6.70;99.90;;;;;;5113296;28;20565;-79
2020/12/06 08:16:09;;;;;;;26.30;16.92;;;6.70;99.90;;;;;;5099894;28;20293;-79
2020/12/06 08:18:35;;;;;;;18.75;14.50;;;6.70;99.90;;;;;;5107145;28;20192;-77
2020/12/06 08:21:01;;;;;;;22.13;16.52;;;6.70;99.90;;;;;;5092704;28;20218;-76
2020/12/06 08:23:31;;;;;;;20.02;15.35;;;6.70;99.90;;;;;;5102850;28;20200;-75
2020/12/06 08:25:57;;;;;;;19.00;15.20;;;6.80;99.90;;;;;;5114788;28;20191;-76
2020/12/06 08:28:23;;;;;;;20.88;15.52;;;6.80;99.90;;;;;;5117280;28;20274;-76
2020/12/06 08:30:50;;;;;;;19.20;14.02;;;6.90;99.90;;;;;;5117221;28;20373;-76
2020/12/06 08:33:22;;;;;;;19.23;14.07;;;6.90;99.90;;;;;;5116999;28;20218;-76
2020/12/06 08:35:51;;;;;;;20.42;15.60;;;6.90;99.90;;;;;;5117212;28;20214;-75
2020/12/06 08:38:19;;;;;;;19.70;15.35;;;7.00;99.90;;;;;;5116927;28;20656;-76
2020/12/06 08:41:03;;;;;;;18.75;13.85;;;7.00;99.90;;;;;;5117154;28;20219;-76
2020/12/06 08:43:49;;;;;;;17.98;14.15;;;7.00;99.90;;;;;;5116999;27;20256;-76
2020/12/06 08:46:17;;;;;;;17.35;13.77;;;7.00;99.90;;;;;;5116837;28;20713;-76
2020/12/06 08:48:44;;;;;;;17.17;14.18;;;7.00;99.90;;;;;;5109052;28;20196;-76
2020/12/06 08:51:27;;;;;;;21.08;13.52;;;7.10;99.90;;;;;;5096601;28;20271;-76
2020/12/06 08:53:53;;;;;;;20.95;14.68;;;7.10;99.90;;;;;;5096612;28;20200;-75
2020/12/06 08:56:30;;;;;;;16.83;13.75;;;7.20;99.90;;;;;;5096293;28;20767;-76
2020/12/06 08:59:02;;;;;;;21.65;15.05;;;7.20;99.90;;;;;;5096573;28;20188;-75
2020/12/06 09:01:29;;;;;;;17.63;13.70;;;7.30;99.90;;;;;;5105973;28;20655;-76
2020/12/06 09:03:55;;;;;;;20.37;14.40;;;7.40;99.90;;;;;;5116803;28;20222;-76
2020/12/06 09:06:21;;;;;;;16.05;13.50;;;7.40;99.90;;;;;;5116571;28;20871;-75
2020/12/06 09:08:47;;;;;;;18.90;13.82;;;7.40;99.90;;;;;;5116523;28;20219;-76
2020/12/06 09:11:14;;;;;;;19.90;14.77;;;7.50;99.90;;;;;;5116357;28;20646;-76
2020/12/06 09:13:41;;;;;;;18.63;12.88;;;7.60;99.90;;;;;;5103084;28;20478;-76
2020/12/06 09:16:07;;;;;;;16.87;14.30;;;7.60;99.90;;;;;;5095780;28;20304;-76
2020/12/06 09:18:34;;;;;;;18.05;13.40;;;7.70;99.90;;;;;;5095481;28;20537;-76
2020/12/06 09:21:00;;;;;;;17.88;12.77;;;7.80;99.90;;;;;;5096071;28;20287;-76
2020/12/06 09:23:26;;;;;;;16.03;12.27;;;7.80;99.90;;;;;;5108189;28;20700;-77
2020/12/06 09:25:52;;;;;;;17.05;12.95;;;7.80;99.90;;;;;;5116490;28;20441;-77
2020/12/06 09:28:18;;;;;;;15.90;12.15;;;7.80;99.90;;;;;;5096574;28;20299;-77
2020/12/06 09:30:44;;;;;;;17.43;12.70;;;7.90;99.90;;;;;;5095935;28;20216;-76
2020/12/06 09:33:10;;;;;;;16.23;13.00;;;8.00;99.90;;;;;;5095475;28;20478;-76
2020/12/06 09:35:37;;;;;;;15.80;11.97;;;8.00;99.90;;;;;;5095677;28;20557;-76
2020/12/06 09:38:03;;;;;;;14.68;11.80;;;8.00;99.90;;;;;;5094880;28;20535;-76
2020/12/06 09:40:29;;;;;;;17.17;12.03;;;8.10;99.90;;;;;;5095772;28;20189;-77
2020/12/06 09:42:55;;;;;;;16.63;11.40;;;8.10;99.90;;;;;;5095655;28;20503;-77
2020/12/06 09:45:21;;;;;;;14.73;11.27;;;8.10;99.90;;;;;;5095426;28;20220;-77
2020/12/06 09:47:47;;;;;;;17.10;12.30;;;8.10;99.90;;;;;;5095492;28;20906;-77
2020/12/06 09:50:13;;;;;;;14.67;11.83;;;8.20;99.90;;;;;;5095439;28;20488;-75
2020/12/06 09:52:40;;;;;;;13.50;11.03;;;8.20;99.90;;;;;;5095139;28;20546;-76
2020/12/06 09:55:06;;;;;;;16.27;12.33;;;8.30;99.90;;;;;;5095429;28;20537;-76
2020/12/06 09:57:32;;;;;;;14.30;11.60;;;8.30;99.90;;;;;;5095243;28;20533;-76
2020/12/06 09:59:59;;;;;;;12.37;11.00;;;8.40;99.90;;;;;;5095233;28;20519;-76
2020/12/06 10:02:25;;;;;;;11.60;10.40;;;8.40;99.90;;;;;;5095180;28;20580;-76
2020/12/06 10:04:51;;;;;;;13.30;11.00;;;8.50;99.90;;;;;;5094966;28;20496;-78
2020/12/06 10:07:20;;;;;;;12.23;10.50;;;8.50;99.90;;;;;;5094927;28;20450;-86
2020/12/06 10:09:47;;;;;;;13.60;11.50;;;8.50;99.90;;;;;;5097613;28;20465;-86
2020/12/06 10:12:13;;;;;;;15.70;11.37;;;8.60;99.90;;;;;;5107821;28;20469;-86
2020/12/06 10:14:39;;;;;;;14.37;10.40;;;8.70;99.90;;;;;;5109965;28;20832;-84
2020/12/06 10:17:05;;;;;;;12.97;10.90;;;8.70;99.90;;;;;;5106309;28;20472;-85
2020/12/06 10:19:31;;;;;;;12.27;10.03;;;8.70;99.90;;;;;;5108792;28;20474;-85
2020/12/06 10:21:58;;;;;;;12.77;11.17;;;8.80;99.90;;;;;;5099473;28;20513;-84
2020/12/06 10:24:24;;;;;;;15.43;10.87;;;8.90;99.90;;;;;;5105694;28;20525;-88
2020/12/06 10:26:52;;;;;;;12.73;10.20;;;8.90;99.90;;;;;;5109425;28;20529;-86
2020/12/06 10:29:18;;;;;;;15.90;11.53;;;9.10;99.90;;;;;;5106750;28;20453;-86
2020/12/06 10:31:44;;;;;;;13.30;10.50;;;9.10;99.90;;;;;;5114584;28;21019;-86
2020/12/06 10:34:10;;;;;;;14.37;10.17;;;9.20;99.90;;;;;;5104044;28;20451;-85
2020/12/06 10:36:36;;;;;;;13.97;10.03;;;9.30;99.90;;;;;;5101614;28;20532;-86
2020/12/06 10:39:02;;;;;;;14.80;11.10;;;9.30;99.90;;;;;;5103919;28;20450;-84
2020/12/06 10:41:31;;;;;;;17.17;12.50;;;9.30;99.90;;;;;;5109166;28;20446;-85
2020/12/06 10:43:58;;;;;;;12.27;10.83;;;9.40;99.90;;;;;;5107787;28;20477;-85
2020/12/06 10:46:26;;;;;;;12.10;10.80;;;9.40;99.90;;;;;;5100795;28;20454;-85
2020/12/06 10:48:52;;;;;;;11.77;10.53;;;9.50;99.90;;;;;;5108974;28;20446;-92
2020/12/06 10:51:18;;;;;;;11.20;9.67;;;9.50;99.90;;;;;;5110157;28;20495;-93
2020/12/06 10:53:44;;;;;;;13.90;10.73;;;9.60;99.90;;;;;;5099733;27;20478;-89
2020/12/06 10:56:10;;;;;;;13.10;9.10;;;9.60;99.90;;;;;;5106272;28;20442;-84
2020/12/06 10:58:37;;;;;;;12.87;10.03;;;9.60;99.90;;;;;;5104196;28;20438;-84
2020/12/06 11:01:04;;;;;;;11.67;10.00;;;9.70;99.90;;;;;;5103771;28;20533;-85
2020/12/06 11:03:31;;;;;;;10.03;8.93;;;9.70;99.90;;;;;;5105728;28;20449;-82
2020/12/06 11:05:57;;;;;;;11.70;10.20;;;9.80;99.90;;;;;;5111564;27;20438;-84
2020/12/06 11:08:24;;;;;;;11.77;9.97;;;9.80;99.90;;;;;;5097184;28;20458;-83
2020/12/06 11:10:51;;;;;;;11.20;9.83;;;9.80;99.90;;;;;;5110706;28;20537;-84
2020/12/06 11:13:17;;;;;;;11.60;9.20;;;9.90;99.90;;;;;;5106849;28;20486;-85
2020/12/06 11:15:43;;;;;;;11.83;9.40;;;9.90;99.90;;;;;;5097896;28;21072;-85
2020/12/06 11:18:10;;;;;;;12.40;9.70;;;10.00;99.90;;;;;;5098284;28;20843;-85
2020/12/06 11:20:36;;;;;;;12.90;10.27;;;10.00;99.90;;;;;;5106504;28;20880;-84
2020/12/06 11:23:03;;;;;;;13.10;10.73;;;10.10;99.90;;;;;;5109710;28;20746;-84
2020/12/06 11:25:29;;;;;;;13.40;9.90;;;10.10;99.90;;;;;;5110130;28;20449;-86
2020/12/06 11:27:55;;;;;;;17.77;12.80;;;10.20;99.90;;;;;;5100620;28;20450;-84
2020/12/06 11:30:21;;;;;;;11.53;10.27;;;10.30;99.90;;;;;;5098440;28;20446;-85
2020/12/06 11:32:47;;;;;;;13.70;10.60;;;10.40;99.90;;;;;;5102167;28;20905;-84
2020/12/06 11:35:14;;;;;;;15.53;10.00;;;10.40;99.90;;;;;;5102556;28;20450;-85
2020/12/06 11:37:40;;;;;;;13.63;10.43;;;10.40;99.90;;;;;;5101079;28;20553;-84
2020/12/06 11:40:06;;;;;;;11.43;9.53;;;10.50;99.90;;;;;;5103519;28;21032;-84
2020/12/06 11:42:33;;;;;;;11.30;9.50;;;10.50;99.90;;;;;;5101658;28;20449;-84
2020/12/06 11:44:59;;;;;;;11.40;9.30;;;10.50;99.90;;;;;;5105604;28;20527;-83
2020/12/06 11:47:25;;;;;;;10.80;9.03;;;10.50;99.90;;;;;;5097246;28;20462;-82
2020/12/06 11:49:51;;;;;;;10.60;8.90;;;10.50;99.90;;;;;;5102087;28;20510;-82
2020/12/06 11:52:18;;;;;;;12.60;9.23;;;10.60;99.90;;;;;;5108967;28;20896;-83
2020/12/06 11:54:47;;;;;;;12.50;9.60;;;10.60;99.90;;;;;;5103879;28;20491;-82
2020/12/06 11:57:13;;;;;;;11.20;9.27;;;10.60;99.90;;;;;;5111216;28;20442;-81
2020/12/06 11:59:39;;;;;;;9.80;8.77;;;10.70;99.90;;;;;;5100064;28;20500;-83
2020/12/06 12:02:05;;;;;;;9.57;8.60;;;10.80;99.90;;;;;;5105028;28;20507;-84
2020/12/06 12:04:31;;;;;;;9.37;8.37;;;10.80;99.90;;;;;;5103089;28;20438;-85
2020/12/06 12:06:57;;;;;;;11.77;10.07;;;10.80;99.90;;;;;;5102139;28;20443;-83
2020/12/06 12:09:24;;;;;;;10.73;9.33;;;10.90;99.90;;;;;;5111081;28;20438;-84
2020/12/06 12:11:50;;;;;;;9.87;8.80;;;10.90;99.90;;;;;;5102496;28;20469;-84
2020/12/06 12:14:19;;;;;;;15.43;9.80;;;10.90;99.90;;;;;;5101513;28;20621;-88
2020/12/06 12:16:45;;;;;;;9.10;8.30;;;10.90;99.90;;;;;;5099061;28;20450;-87
2020/12/06 12:19:11;;;;;;;8.83;8.03;;;10.90;99.90;;;;;;5105938;28;20536;-88
2020/12/06 12:21:37;;;;;;;11.43;9.60;;;10.90;99.90;;;;;;5104864;28;20452;-89
2020/12/06 12:24:03;;;;;;;10.10;8.80;;;10.90;99.90;;;;;;5105031;28;20471;-87
2020/12/06 12:26:30;;;;;;;10.73;9.00;;;10.90;99.90;;;;;;5104406;28;20466;-86
2020/12/06 12:28:56;;;;;;;9.80;8.40;;;10.90;99.90;;;;;;5106434;28;20438;-87
2020/12/06 12:31:23;;;;;;;9.53;8.57;;;10.90;99.90;;;;;;5105144;28;20450;-88
2020/12/06 12:33:49;;;;;;;10.83;9.43;;;10.90;99.90;;;;;;5105914;28;20526;-86
2020/12/06 12:36:15;;;;;;;10.40;9.40;;;10.90;99.90;;;;;;5103056;28;20487;-85